Time;durP1;ratioP1;P1;durP2;ratioP2;P2;SDS_P1;SDS_P2;PMS_P1;PMS_P2;Temp;Humidity;BMP_temperature;BMP_pressure;BME280_temperature;BME280_humidity;BME280_pressure;Samples;Min_cycle;Max_cycle;Signal;HPM_P1;HPM_P2
2023/01/19 00:01:00;;;;;;;23.58;13.65;;;-1.60;99.90;;;;;;4726611;28;10000666;-71
2023/01/19 00:03:25;;;;;;;22.33;12.98;;;-1.60;99.90;;;;;;5065635;28;20468;-71
2023/01/19 00:05:51;;;;;;;24.27;12.70;;;-1.60;99.90;;;;;;5073979;28;20024;-72
2023/01/19 00:08:17;;;;;;;28.60;13.18;;;-1.60;99.90;;;;;;5076164;28;20040;-71
2023/01/19 00:10:46;;;;;;;24.67;14.00;;;-1.50;99.90;;;;;;5061786;28;20690;-71
2023/01/19 00:13:12;;;;;;;23.92;13.57;;;-1.50;99.90;;;;;;5073228;28;20031;-71
2023/01/19 00:15:38;;;;;;;25.92;13.30;;;-1.50;99.90;;;;;;5068657;28;20104;-71
2023/01/19 00:18:04;;;;;;;28.55;13.85;;;-1.50;99.90;;;;;;5081998;28;20491;-71
2023/01/19 00:20:34;;;;;;;26.73;13.57;;;-1.40;99.90;;;;;;5065185;28;20028;-72
2023/01/19 00:23:00;;;;;;;24.60;13.75;;;-1.40;99.90;;;;;;5064678;28;20480;-72
2023/01/19 00:25:26;;;;;;;28.27;14.65;;;-1.50;99.90;;;;;;5066672;28;20680;-71
2023/01/19 00:27:51;;;;;;;23.55;13.35;;;-1.50;99.90;;;;;;5067406;28;20016;-72
2023/01/19 00:30:17;;;;;;;28.52;14.20;;;-1.40;99.90;;;;;;5062390;28;20473;-72
2023/01/19 00:32:43;;;;;;;24.27;13.40;;;-1.50;99.90;;;;;;5072415;28;20047;-71
2023/01/19 00:35:08;;;;;;;28.90;13.82;;;-1.40;99.90;;;;;;5069761;28;20382;-72
2023/01/19 00:37:34;;;;;;;28.90;14.43;;;-1.40;99.90;;;;;;5064948;28;20078;-71
2023/01/19 00:39:59;;;;;;;23.95;13.57;;;-1.40;99.90;;;;;;5072329;28;20037;-72
2023/01/19 00:42:43;;;;;;;26.85;14.00;;;-1.40;99.90;;;;;;5063879;28;20028;-71
2023/01/19 00:45:13;;;;;;;;;;;-1.30;99.90;;;;;;5072336;28;20040;-72
2023/01/19 00:47:39;;;;;;;23.15;13.50;;;-1.40;99.90;;;;;;5061146;28;20040;-71
2023/01/19 00:50:10;;;;;;;23.83;13.70;;;-1.40;99.90;;;;;;5078495;28;20906;-71
2023/01/19 00:52:39;;;;;;;25.88;14.23;;;-1.40;99.90;;;;;;5056951;28;20033;-71
2023/01/19 00:55:10;;;;;;;27.02;14.20;;;-1.40;99.90;;;;;;5064539;28;20382;-71
2023/01/19 00:57:37;;;;;;;25.42;14.20;;;-1.40;99.90;;;;;;5067757;28;20476;-71
2023/01/19 01:00:06;;;;;;;25.35;14.50;;;-1.40;99.90;;;;;;5063251;28;20039;-71
2023/01/19 01:02:32;;;;;;;26.73;14.63;;;-1.40;99.90;;;;;;5056637;28;20051;-71
2023/01/19 01:05:01;;;;;;;28.17;14.85;;;-1.40;99.90;;;;;;5056577;28;20496;-71
2023/01/19 01:07:28;;;;;;;25.77;14.02;;;-1.40;99.90;;;;;;5056845;28;20032;-70
2023/01/19 01:09:55;;;;;;;25.50;14.02;;;-1.40;99.90;;;;;;5053343;28;21635;-71
2023/01/19 01:12:21;;;;;;;25.42;13.57;;;-1.30;99.90;;;;;;5055585;28;20706;-70
2023/01/19 01:14:47;;;;;;;28.33;13.80;;;-1.20;99.90;;;;;;5069839;28;20012;-71
2023/01/19 01:17:13;;;;;;;24.33;13.65;;;-1.20;99.90;;;;;;5070190;28;20063;-71
2023/01/19 01:19:39;;;;;;;28.52;14.38;;;-1.20;99.90;;;;;;5064014;28;20428;-71
2023/01/19 01:22:06;;;;;;;25.35;14.15;;;-1.10;99.90;;;;;;5061651;28;20066;-71
2023/01/19 01:24:31;;;;;;;22.48;12.73;;;-1.10;99.90;;;;;;5072244;28;20115;-71
2023/01/19 01:26:57;;;;;;;26.00;13.57;;;-1.00;99.90;;;;;;5054489;28;20112;-71
2023/01/19 01:29:23;;;;;;;24.80;14.13;;;-0.90;99.90;;;;;;5056780;28;20032;-72
2023/01/19 01:31:48;;;;;;;27.48;13.55;;;-1.00;99.90;;;;;;5069951;28;20040;-70
2023/01/19 01:34:15;;;;;;;29.48;14.85;;;-0.90;99.90;;;;;;5072830;28;20027;-72
2023/01/19 01:36:41;;;;;;;24.48;14.00;;;-0.80;99.90;;;;;;5066025;28;20023;-72
2023/01/19 01:39:06;;;;;;;25.30;13.32;;;-0.80;99.90;;;;;;5065610;28;20032;-71
2023/01/19 01:41:32;;;;;;;24.25;13.55;;;-0.80;99.90;;;;;;5058455;28;21116;-71
2023/01/19 01:44:00;;;;;;;26.83;14.13;;;-0.90;99.90;;;;;;5062534;28;20025;-71
2023/01/19 01:46:29;;;;;;;25.35;13.32;;;-0.90;99.90;;;;;;5066835;28;20028;-72
2023/01/19 01:49:06;;;;;;;24.17;13.05;;;-0.90;99.90;;;;;;5065650;28;20087;-72
2023/01/19 01:51:47;;;;;;;28.58;13.57;;;-0.90;99.90;;;;;;5058821;28;20029;-71
2023/01/19 01:54:18;;;;;;;25.08;13.90;;;-0.90;99.90;;;;;;5060387;28;20043;-72
2023/01/19 01:56:47;;;;;;;25.17;13.88;;;-0.90;99.90;;;;;;5073048;28;20107;-71
2023/01/19 01:59:24;;;;;;;25.58;13.38;;;-0.90;99.90;;;;;;5073642;28;20036;-71
2023/01/19 02:05:03;;;;;;;27.67;14.15;;;-0.90;99.90;;;;;;5054739;28;20039;-71
2023/01/19 02:13:18;;;;;;;26.13;14.02;;;-0.90;99.90;;;;;;5062741;28;20547;-71
2023/01/19 02:15:44;;;;;;;27.90;14.85;;;-0.90;99.90;;;;;;5068146;28;20112;-71
2023/01/19 02:18:10;;;;;;;29.95;15.35;;;-0.90;99.90;;;;;;5066936;28;20029;-71
2023/01/19 02:20:38;;;;;;;27.83;14.15;;;-0.90;99.90;;;;;;5061464;28;20756;-71
2023/01/19 02:23:10;;;;;;;27.70;14.30;;;-0.90;99.90;;;;;;5058618;28;20450;-71
2023/01/19 02:25:36;;;;;;;25.88;13.60;;;-0.90;99.90;;;;;;5060515;28;20509;-71
2023/01/19 02:28:03;;;;;;;24.63;14.10;;;-0.80;99.90;;;;;;5073914;28;20036;-71
2023/01/19 02:30:29;;;;;;;23.25;13.90;;;-0.80;99.90;;;;;;5069670;28;20040;-71
2023/01/19 02:32:54;;;;;;;27.63;14.40;;;-0.90;99.90;;;;;;5065293;28;20039;-71
2023/01/19 02:35:21;;;;;;;24.38;14.50;;;-0.90;99.90;;;;;;5066702;28;20085;-72
2023/01/19 02:37:47;;;;;;;25.88;14.40;;;-0.90;99.90;;;;;;5065606;28;20023;-71
2023/01/19 02:40:18;;;;;;;26.58;15.20;;;-0.90;99.90;;;;;;5064753;28;20036;-72
2023/01/19 02:42:51;;;;;;;25.00;14.43;;;-0.90;99.90;;;;;;5065370;28;20037;-71
2023/01/19 02:45:20;;;;;;;27.65;14.18;;;-1.00;99.90;;;;;;5043379;28;20085;-71
2023/01/19 02:47:49;;;;;;;25.27;13.95;;;-1.00;99.90;;;;;;5063752;28;20543;-71
2023/01/19 02:50:48;;;;;;;24.05;15.10;;;-1.10;99.90;;;;;;5055527;28;20056;-71
2023/01/19 02:53:37;;;;;;;27.48;16.23;;;-1.10;99.90;;;;;;5063169;28;20028;-71
2023/01/19 02:56:16;;;;;;;28.77;15.13;;;-1.20;99.90;;;;;;5057377;28;20477;-71
2023/01/19 02:58:59;;;;;;;31.20;15.55;;;-1.20;99.90;;;;;;5069734;28;20036;-71
2023/01/19 03:01:40;;;;;;;33.42;15.90;;;-1.20;99.90;;;;;;5070217;28;20070;-71
2023/01/19 03:04:43;;;;;;;31.70;15.30;;;-1.20;99.90;;;;;;5056381;28;20033;-71
2023/01/19 03:07:33;;;;;;;27.80;15.25;;;-1.20;99.90;;;;;;5073466;28;20037;-71
2023/01/19 03:10:34;;;;;;;28.00;16.45;;;-1.20;99.90;;;;;;5069243;28;20035;-71
2023/01/19 03:13:03;;;;;;;27.92;15.98;;;-1.20;99.90;;;;;;5038965;28;20473;-71
2023/01/19 03:15:46;;;;;;;31.75;15.95;;;-1.20;99.90;;;;;;5069029;28;20226;-71
2023/01/19 03:18:13;;;;;;;;;;;-1.20;99.90;;;;;;5057937;28;20397;-71
2023/01/19 03:20:40;;;;;;;27.40;15.52;;;-1.20;99.90;;;;;;5078064;28;20384;-71
2023/01/19 03:23:10;;;;;;;30.90;16.35;;;-1.20;99.90;;;;;;5069773;28;20539;-71
2023/01/19 03:25:39;;;;;;;34.42;18.17;;;-1.30;99.90;;;;;;5070247;28;20032;-71
2023/01/19 03:28:05;;;;;;;31.75;16.95;;;-1.30;99.90;;;;;;5063264;28;20040;-71
2023/01/19 03:30:39;;;;;;;29.73;16.60;;;-1.30;99.90;;;;;;5072457;28;20515;-71
2023/01/19 03:33:13;;;;;;;27.95;16.45;;;-1.30;99.90;;;;;;5058590;28;20036;-71
2023/01/19 03:35:43;;;;;;;28.52;16.23;;;-1.40;99.90;;;;;;5067784;28;20028;-71
2023/01/19 03:38:14;;;;;;;29.75;17.13;;;-1.40;99.90;;;;;;5072919;28;20037;-71
2023/01/19 03:40:40;;;;;;;31.45;16.63;;;-1.40;99.90;;;;;;5070439;28;20488;-71
2023/01/19 03:43:07;;;;;;;37.50;17.40;;;-1.40;99.90;;;;;;5064526;28;20037;-71
2023/01/19 03:45:37;;;;;;;29.30;17.50;;;-1.40;99.90;;;;;;5060465;28;20043;-71
2023/01/19 03:48:04;;;;;;;30.10;17.08;;;-1.40;99.90;;;;;;5064077;28;20776;-71
2023/01/19 03:50:30;;;;;;;32.80;17.30;;;-1.40;99.90;;;;;;5055388;28;20577;-71
2023/01/19 03:53:16;;;;;;;31.52;17.50;;;-1.40;99.90;;;;;;5064266;28;20434;-71
2023/01/19 03:55:45;;;;;;;31.50;17.60;;;-1.40;99.90;;;;;;5068299;28;20025;-71
2023/01/19 03:58:11;;;;;;;30.40;17.98;;;-1.40;99.90;;;;;;5077211;28;20036;-71
2023/01/19 04:00:38;;;;;;;33.72;17.08;;;-1.40;99.90;;;;;;5074897;28;20043;-71
2023/01/19 04:03:04;;;;;;;31.38;17.60;;;-1.40;99.90;;;;;;5079699;28;20028;-71
2023/01/19 04:05:30;;;;;;;28.23;17.27;;;-1.40;99.90;;;;;;5063357;28;20052;-72
2023/01/19 04:07:56;;;;;;;28.13;16.95;;;-1.40;99.90;;;;;;5064558;28;20039;-71
2023/01/19 04:10:22;;;;;;;32.58;17.67;;;-1.40;99.90;;;;;;5069655;28;20693;-71
2023/01/19 04:12:48;;;;;;;33.83;18.23;;;-1.40;99.90;;;;;;5060693;28;20033;-71
2023/01/19 04:15:14;;;;;;;31.83;17.48;;;-1.40;99.90;;;;;;5063054;28;20361;-71
2023/01/19 04:17:40;;;;;;;32.78;18.05;;;-1.40;99.90;;;;;;5068551;28;20103;-71
2023/01/19 04:20:07;;;;;;;33.70;18.20;;;-1.40;99.90;;;;;;5064206;28;20037;-71
2023/01/19 04:22:34;;;;;;;31.08;16.73;;;-1.40;99.90;;;;;;5055004;28;20535;-72
2023/01/19 04:25:00;;;;;;;36.97;18.85;;;-1.40;99.90;;;;;;5071632;28;20021;-71
2023/01/19 04:27:25;;;;;;;31.13;17.67;;;-1.40;99.90;;;;;;5078715;28;20248;-71
2023/01/19 04:29:51;;;;;;;34.58;17.63;;;-1.40;99.90;;;;;;5067139;28;20166;-71
2023/01/19 04:32:17;;;;;;;37.90;18.00;;;-1.50;99.90;;;;;;5067759;28;20485;-71
2023/01/19 04:34:42;;;;;;;33.38;18.60;;;-1.50;99.90;;;;;;5058228;28;20504;-71
2023/01/19 04:37:09;;;;;;;30.85;17.83;;;-1.50;99.90;;;;;;5076231;28;20028;-71
2023/01/19 04:39:35;;;;;;;33.92;18.05;;;-1.50;99.90;;;;;;5061309;28;20037;-71
2023/01/19 04:42:00;;;;;;;30.88;17.13;;;-1.50;99.90;;;;;;5072128;28;20103;-71
2023/01/19 04:44:27;;;;;;;28.98;17.90;;;-1.50;99.90;;;;;;5064971;28;20362;-71
2023/01/19 04:46:52;;;;;;;30.40;17.25;;;-1.50;99.90;;;;;;5072313;28;20103;-71
2023/01/19 04:49:18;;;;;;;36.05;17.55;;;-1.50;99.90;;;;;;5074849;28;20567;-71
2023/01/19 04:51:44;;;;;;;31.77;18.20;;;-1.50;99.90;;;;;;5062233;28;20543;-71
2023/01/19 04:54:09;;;;;;;32.75;18.13;;;-1.50;99.90;;;;;;5061155;28;20393;-71
2023/01/19 04:56:35;;;;;;;35.03;18.45;;;-1.50;99.90;;;;;;5066621;28;20021;-71
2023/01/19 04:59:01;;;;;;;28.25;17.55;;;-1.40;99.90;;;;;;5064293;28;20527;-71
2023/01/19 05:01:26;;;;;;;33.05;18.52;;;-1.50;99.90;;;;;;5066088;28;20504;-71
2023/01/19 05:03:52;;;;;;;31.83;18.60;;;-1.40;99.90;;;;;;5060540;28;20016;-71
2023/01/19 05:06:18;;;;;;;38.15;19.20;;;-1.50;99.90;;;;;;5061866;28;20108;-70
2023/01/19 05:08:43;;;;;;;33.88;19.70;;;-1.50;99.90;;;;;;5057396;28;20484;-71
2023/01/19 05:11:09;;;;;;;33.90;18.67;;;-1.50;99.90;;;;;;5058912;28;20119;-71
2023/01/19 05:13:34;;;;;;;32.75;18.63;;;-1.50;99.90;;;;;;5059869;28;20496;-71
2023/01/19 05:16:01;;;;;;;36.13;19.42;;;-1.50;99.90;;;;;;5068182;28;20531;-72
2023/01/19 05:18:26;;;;;;;41.65;21.13;;;-1.50;99.90;;;;;;5055305;28;20044;-71
2023/01/19 05:20:52;;;;;;;40.35;22.02;;;-1.40;99.90;;;;;;5062223;28;20036;-71
2023/01/19 05:23:17;;;;;;;33.35;18.60;;;-1.40;99.90;;;;;;5046196;28;20032;-71
2023/01/19 05:25:43;;;;;;;31.13;18.27;;;-1.30;99.90;;;;;;5069471;28;20423;-71
2023/01/19 05:28:09;;;;;;;33.75;18.83;;;-1.30;99.90;;;;;;5083507;28;20047;-72
2023/01/19 05:30:35;;;;;;;28.25;16.92;;;-1.20;99.90;;;;;;5070844;28;20114;-72
2023/01/19 05:33:01;;;;;;;29.90;17.48;;;-1.10;99.90;;;;;;5047148;28;20566;-71
2023/01/19 05:35:27;;;;;;;31.15;17.15;;;-1.10;99.90;;;;;;5064435;28;20099;-72
2023/01/19 05:37:52;;;;;;;27.90;16.75;;;-1.10;99.90;;;;;;5075423;28;20559;-71
2023/01/19 05:40:18;;;;;;;30.77;18.05;;;-1.00;99.90;;;;;;5082095;28;20062;-71
2023/01/19 05:42:43;;;;;;;29.60;16.88;;;-1.00;99.90;;;;;;5060565;28;20486;-71
2023/01/19 05:45:10;;;;;;;26.42;16.88;;;-1.00;99.90;;;;;;5064846;28;20036;-72
2023/01/19 05:47:36;;;;;;;29.95;16.65;;;-1.00;99.90;;;;;;5068134;28;20570;-71
2023/01/19 05:50:02;;;;;;;39.80;18.40;;;-1.00;99.90;;;;;;5066307;28;20041;-71
2023/01/19 05:52:27;;;;;;;31.33;17.10;;;-1.00;99.90;;;;;;5062002;28;20024;-71
2023/01/19 05:54:54;;;;;;;29.92;16.65;;;-1.00;99.90;;;;;;5064271;28;20109;-71
2023/01/19 05:57:20;;;;;;;29.67;17.42;;;-1.00;99.90;;;;;;5082607;28;21264;-71
2023/01/19 05:59:45;;;;;;;27.90;17.58;;;-1.00;99.90;;;;;;5071292;28;20064;-71
2023/01/19 06:02:11;;;;;;;27.15;15.82;;;-1.00;99.90;;;;;;5047185;28;20036;-71
2023/01/19 06:04:37;;;;;;;31.90;16.42;;;-1.10;99.90;;;;;;5066372;28;20032;-71
2023/01/19 06:07:03;;;;;;;31.98;17.55;;;-1.10;99.90;;;;;;5064504;28;20189;-71
2023/01/19 06:09:29;;;;;;;28.13;15.90;;;-0.90;99.90;;;;;;5069495;28;20167;-71
2023/01/19 06:11:56;;;;;;;30.17;16.45;;;-0.90;99.90;;;;;;5055538;28;20104;-71
2023/01/19 06:14:22;;;;;;;29.92;16.80;;;-0.80;99.90;;;;;;5061634;28;20024;-71
2023/01/19 06:16:47;;;;;;;30.63;16.17;;;-0.80;99.90;;;;;;5065923;28;20029;-71
2023/01/19 06:19:13;;;;;;;28.65;16.20;;;-0.80;99.90;;;;;;5065135;28;20109;-71
2023/01/19 06:21:39;;;;;;;26.30;15.57;;;-0.70;99.90;;;;;;5055868;28;20083;-71
2023/01/19 06:24:05;;;;;;;26.92;16.45;;;-0.80;99.90;;;;;;5062402;28;20117;-71
2023/01/19 06:26:31;;;;;;;29.25;15.80;;;-0.70;99.90;;;;;;5069129;28;20025;-71
2023/01/19 06:28:56;;;;;;;29.20;17.02;;;-0.70;99.90;;;;;;5080456;28;20073;-71
2023/01/19 06:31:22;;;;;;;31.30;18.10;;;-0.70;99.90;;;;;;5067263;28;20032;-71
2023/01/19 06:33:47;;;;;;;25.23;16.35;;;-0.70;99.90;;;;;;5074482;28;20024;-71
2023/01/19 06:36:13;;;;;;;30.85;17.05;;;-0.70;99.90;;;;;;5065637;28;20729;-72
2023/01/19 06:38:39;;;;;;;31.48;17.85;;;-0.70;99.90;;;;;;5059709;28;20051;-71
2023/01/19 06:41:04;;;;;;;32.83;16.85;;;-0.70;99.90;;;;;;5053532;28;20595;-71
2023/01/19 06:43:30;;;;;;;29.50;17.13;;;-0.80;99.90;;;;;;5072591;28;20566;-72
2023/01/19 06:45:57;;;;;;;37.22;17.30;;;-1.00;99.90;;;;;;5066647;28;20384;-71
2023/01/19 06:48:23;;;;;;;29.98;17.85;;;-1.00;99.90;;;;;;5069500;28;20123;-71
2023/01/19 06:50:48;;;;;;;31.75;17.27;;;-1.00;99.90;;;;;;5068903;28;20032;-72
2023/01/19 06:53:15;;;;;;;30.48;17.13;;;-1.00;99.90;;;;;;5066200;28;20035;-72
2023/01/19 06:55:42;;;;;;;29.33;16.70;;;-1.00;99.90;;;;;;5068509;28;20486;-71
2023/01/19 06:58:08;;;;;;;30.30;17.92;;;-1.00;99.90;;;;;;5065100;28;20032;-71
2023/01/19 07:00:34;;;;;;;32.38;18.63;;;-1.00;99.90;;;;;;5058009;28;20036;-71
2023/01/19 07:03:00;;;;;;;31.10;17.67;;;-0.90;99.90;;;;;;5062387;28;20028;-72
2023/01/19 07:05:26;;;;;;;31.40;17.63;;;-1.00;99.90;;;;;;5061369;28;20032;-71
2023/01/19 07:07:53;;;;;;;31.70;19.02;;;-0.90;99.90;;;;;;5073815;28;20558;-72
2023/01/19 07:10:19;;;;;;;31.08;17.42;;;-0.90;99.90;;;;;;5067205;28;20119;-71
2023/01/19 07:12:46;;;;;;;31.65;17.83;;;-0.90;99.90;;;;;;5074649;28;20740;-72
2023/01/19 07:15:12;;;;;;;31.83;18.27;;;-0.90;99.90;;;;;;5061951;28;20115;-71
2023/01/19 07:17:38;;;;;;;30.85;18.17;;;-0.90;99.90;;;;;;5068508;28;20504;-71
2023/01/19 07:20:04;;;;;;;35.03;18.08;;;-0.90;99.90;;;;;;5066266;28;20369;-72
2023/01/19 07:22:30;;;;;;;31.10;18.42;;;-0.90;99.90;;;;;;5067723;28;20038;-71
2023/01/19 07:24:57;;;;;;;29.13;17.30;;;-0.80;99.90;;;;;;5065747;28;20025;-72
2023/01/19 07:27:26;;;;;;;30.48;17.52;;;-0.90;99.90;;;;;;5064582;28;20443;-71
2023/01/19 07:29:51;;;;;;;36.08;16.52;;;-0.80;99.90;;;;;;5059427;28;20037;-71
2023/01/19 07:32:17;;;;;;;32.35;17.75;;;-0.80;99.90;;;;;;5060173;28;20021;-71
2023/01/19 07:34:42;;;;;;;30.27;18.27;;;-0.70;99.90;;;;;;5067948;28;20047;-71
2023/01/19 07:37:08;;;;;;;27.55;16.70;;;-0.70;99.90;;;;;;5067249;28;20044;-72
2023/01/19 07:39:35;;;;;;;34.50;18.42;;;-0.70;99.90;;;;;;5063643;28;20025;-72
2023/01/19 07:42:01;;;;;;;30.40;17.85;;;-0.60;99.90;;;;;;5061997;28;20028;-72
2023/01/19 07:44:27;;;;;;;31.45;17.50;;;-0.60;99.90;;;;;;5061524;28;20575;-71
2023/01/19 07:46:52;;;;;;;30.63;17.45;;;-0.60;99.90;;;;;;5069829;28;20016;-72
2023/01/19 07:49:19;;;;;;;32.15;18.33;;;-0.50;99.90;;;;;;5063030;28;20044;-72
2023/01/19 07:51:45;;;;;;;30.25;17.65;;;-0.50;99.90;;;;;;5063131;28;20024;-72
2023/01/19 07:54:11;;;;;;;32.35;17.85;;;-0.40;99.90;;;;;;5064636;28;20032;-72
2023/01/19 07:56:36;;;;;;;32.25;18.75;;;-0.40;99.90;;;;;;5066188;28;20029;-72
2023/01/19 07:59:02;;;;;;;38.28;22.90;;;-0.40;99.90;;;;;;5064589;28;20079;-72
2023/01/19 08:01:28;;;;;;;38.55;22.63;;;-0.40;99.90;;;;;;5060485;28;20059;-72
2023/01/19 08:03:54;;;;;;;39.35;21.50;;;-0.30;99.90;;;;;;5066253;28;20043;-72
2023/01/19 08:06:22;;;;;;;38.78;21.90;;;-0.30;99.90;;;;;;5065111;28;20032;-72
2023/01/19 08:08:49;;;;;;;41.63;25.10;;;-0.30;99.90;;;;;;5062345;28;20025;-71
2023/01/19 08:11:15;;;;;;;35.80;20.88;;;-0.30;99.90;;;;;;5064525;28;20055;-71
2023/01/19 08:13:42;;;;;;;32.35;18.70;;;-0.20;99.90;;;;;;5061450;28;20107;-72
2023/01/19 08:16:07;;;;;;;32.38;19.33;;;-0.20;99.90;;;;;;5060050;28;20037;-72
2023/01/19 08:18:33;;;;;;;30.73;18.55;;;-0.20;99.90;;;;;;5064702;28;20021;-72
2023/01/19 08:20:59;;;;;;;36.80;17.73;;;-0.20;99.90;;;;;;5054479;28;20033;-71
2023/01/19 08:23:26;;;;;;;29.35;18.10;;;-0.20;99.90;;;;;;5062789;28;20100;-71
2023/01/19 08:25:52;;;;;;;29.33;17.48;;;-0.20;99.90;;;;;;5071706;28;20028;-71
2023/01/19 08:28:18;;;;;;;31.10;17.75;;;-0.10;99.90;;;;;;5065452;28;20040;-71
2023/01/19 08:30:44;;;;;;;31.55;19.10;;;-0.10;99.90;;;;;;5059091;28;20024;-71
2023/01/19 08:33:11;;;;;;;33.83;18.70;;;-0.10;99.90;;;;;;5061834;28;20086;-72
2023/01/19 08:35:40;;;;;;;28.55;17.38;;;-0.10;99.90;;;;;;5062540;28;20029;-71
2023/01/19 08:38:06;;;;;;;28.08;16.60;;;-0.10;99.90;;;;;;5062579;28;20211;-72
2023/01/19 08:40:34;;;;;;;31.25;17.90;;;0.00;99.90;;;;;;5050494;28;20121;-72
2023/01/19 08:43:03;;;;;;;27.38;16.70;;;0.00;99.90;;;;;;5053014;28;20089;-71
2023/01/19 08:45:32;;;;;;;26.77;17.17;;;0.00;99.90;;;;;;5060258;28;20081;-71
2023/01/19 08:47:58;;;;;;;29.92;17.27;;;0.10;99.90;;;;;;5068895;28;20024;-71
2023/01/19 08:50:28;;;;;;;27.38;16.58;;;0.10;99.90;;;;;;5062902;28;20029;-71
2023/01/19 08:52:59;;;;;;;28.02;17.35;;;0.10;99.90;;;;;;5055437;28;20032;-72
2023/01/19 08:55:25;;;;;;;27.88;17.80;;;0.10;99.90;;;;;;5065641;28;20028;-72
2023/01/19 08:57:58;;;;;;;29.60;17.98;;;0.20;99.90;;;;;;5061478;28;20693;-72
2023/01/19 09:00:26;;;;;;;27.90;17.33;;;0.10;99.90;;;;;;5064691;28;20532;-72
2023/01/19 09:02:51;;;;;;;30.60;17.55;;;0.20;99.90;;;;;;5056750;28;20040;-72
2023/01/19 09:05:17;;;;;;;29.25;17.15;;;0.20;99.90;;;;;;5055929;28;20025;-73
2023/01/19 09:07:46;;;;;;;28.15;17.88;;;0.20;99.90;;;;;;5071322;28;20127;-72
2023/01/19 09:10:12;;;;;;;26.27;15.57;;;0.30;99.90;;;;;;5057348;28;20067;-73
2023/01/19 09:12:38;;;;;;;28.10;17.35;;;0.40;99.90;;;;;;5054313;28;20386;-72
2023/01/19 09:15:04;;;;;;;27.45;16.38;;;0.40;99.90;;;;;;5061052;28;20024;-71
2023/01/19 09:17:29;;;;;;;26.58;16.27;;;0.40;99.90;;;;;;5061758;28;20121;-72
2023/01/19 09:19:55;;;;;;;26.75;16.88;;;0.40;99.90;;;;;;5063120;28;20048;-74
2023/01/19 09:22:20;;;;;;;32.88;18.35;;;0.40;99.90;;;;;;5062026;28;20031;-72
2023/01/19 09:24:46;;;;;;;25.05;16.45;;;0.40;99.90;;;;;;5060714;28;20008;-72
2023/01/19 09:27:12;;;;;;;34.92;18.80;;;0.30;99.90;;;;;;5059638;28;20118;-71
2023/01/19 09:29:37;;;;;;;32.15;19.77;;;0.30;99.90;;;;;;5051684;28;20055;-72
2023/01/19 09:32:03;;;;;;;29.92;18.95;;;0.40;99.90;;;;;;5058447;28;20020;-72
2023/01/19 09:34:30;;;;;;;32.60;19.35;;;0.20;99.90;;;;;;5065911;28;20077;-71
2023/01/19 09:36:55;;;;;;;33.95;20.48;;;0.20;99.90;;;;;;5064092;28;20032;-72
2023/01/19 09:39:21;;;;;;;33.33;20.95;;;0.20;99.90;;;;;;5060951;28;20024;-72
2023/01/19 09:42:01;;;;;;;35.47;21.50;;;0.20;99.90;;;;;;5060945;28;20017;-72
2023/01/19 09:44:34;;;;;;;36.10;21.33;;;0.10;99.90;;;;;;5055075;28;20020;-72
2023/01/19 09:47:11;;;;;;;38.50;20.63;;;0.10;99.90;;;;;;5063421;28;20020;-72
2023/01/19 09:49:42;;;;;;;39.38;22.40;;;0.00;99.90;;;;;;5067071;28;20046;-73
2023/01/19 09:52:13;;;;;;;41.72;23.65;;;0.10;99.90;;;;;;5063393;28;20512;-71
2023/01/19 09:54:48;;;;;;;40.72;23.63;;;0.10;99.90;;;;;;5061178;28;20388;-72
2023/01/19 09:57:13;;;;;;;42.78;24.17;;;0.10;99.90;;;;;;5056729;28;20032;-72
2023/01/19 09:59:42;;;;;;;41.72;23.02;;;0.10;99.90;;;;;;5050369;28;20025;-72
2023/01/19 10:02:32;;;;;;;39.40;23.80;;;0.20;99.90;;;;;;5061431;28;20123;-72
2023/01/19 10:05:00;;;;;;;38.40;21.52;;;0.30;99.90;;;;;;5047502;28;20910;-72
2023/01/19 10:07:52;;;;;;;41.65;21.63;;;0.30;99.90;;;;;;5063426;28;20041;-72
2023/01/19 10:10:26;;;;;;;38.90;21.60;;;0.40;99.90;;;;;;5065636;28;22161;-73
2023/01/19 10:13:10;;;;;;;34.17;20.40;;;0.50;99.90;;;;;;5057930;28;20389;-72
2023/01/19 10:15:45;;;;;;;34.95;19.25;;;0.60;99.90;;;;;;5068001;28;20028;-73
2023/01/19 10:18:30;;;;;;;30.38;18.52;;;0.60;99.90;;;;;;5071052;28;20021;-72
2023/01/19 10:21:10;;;;;;;33.10;18.52;;;0.60;99.90;;;;;;5059468;28;20028;-73
2023/01/19 10:24:03;;;;;;;30.95;17.67;;;0.70;99.90;;;;;;5064052;28;20029;-74
2023/01/19 10:26:35;;;;;;;25.20;14.30;;;0.70;99.90;;;;;;5064419;28;20162;-72
2023/01/19 10:29:27;;;;;;;32.60;17.65;;;0.70;99.90;;;;;;5067119;28;20574;-73
2023/01/19 10:32:05;;;;;;;31.20;18.15;;;0.70;99.90;;;;;;5050512;28;20037;-72
2023/01/19 10:34:31;;;;;;;29.33;17.85;;;0.60;99.90;;;;;;5061185;28;20028;-73
2023/01/19 10:37:03;;;;;;;36.47;19.60;;;0.50;99.90;;;;;;5070287;28;20017;-72
2023/01/19 10:39:29;;;;;;;33.03;17.73;;;0.50;99.90;;;;;;5064624;28;20016;-73
2023/01/19 10:42:01;;;;;;;31.35;17.75;;;0.50;99.90;;;;;;5051222;28;20040;-71
2023/01/19 10:44:33;;;;;;;30.67;18.13;;;0.50;99.90;;;;;;5054623;28;20085;-71
2023/01/19 10:47:00;;;;;;;21.95;12.77;;;0.50;99.90;;;;;;5070244;28;20036;-72
2023/01/19 10:49:27;;;;;;;28.15;16.23;;;0.50;99.90;;;;;;5067377;28;20053;-71
2023/01/19 10:51:55;;;;;;;29.73;17.73;;;0.50;99.90;;;;;;5056549;28;20099;-71
2023/01/19 10:54:22;;;;;;;31.48;17.52;;;0.50;99.90;;;;;;5071195;28;21488;-72
2023/01/19 10:57:09;;;;;;;28.58;16.42;;;0.50;99.90;;;;;;5070164;28;20029;-71
2023/01/19 10:59:48;;;;;;;28.70;16.13;;;0.50;99.90;;;;;;5063982;28;20721;-71
2023/01/19 11:02:25;;;;;;;26.05;16.02;;;0.50;99.90;;;;;;5062921;28;20044;-71
2023/01/19 11:04:53;;;;;;;25.20;16.85;;;0.50;99.90;;;;;;5060774;28;20062;-72
2023/01/19 11:07:20;;;;;;;28.55;17.35;;;0.50;99.90;;;;;;5063927;28;20037;-72
2023/01/19 11:09:47;;;;;;;28.13;16.15;;;0.50;99.90;;;;;;5060549;28;20025;-72
2023/01/19 11:12:21;;;;;;;24.45;15.57;;;0.50;99.90;;;;;;5054105;28;20036;-72
2023/01/19 11:14:49;;;;;;;28.45;15.82;;;0.50;99.90;;;;;;5059162;28;20495;-72
2023/01/19 11:17:23;;;;;;;26.70;14.85;;;0.50;99.90;;;;;;5057840;28;20042;-72
2023/01/19 11:19:55;;;;;;;23.38;14.63;;;0.60;99.90;;;;;;5058227;28;20110;-72
2023/01/19 11:22:26;;;;;;;18.40;11.23;;;0.60;99.90;;;;;;5051758;28;20141;-72
2023/01/19 11:24:52;;;;;;;22.95;14.07;;;0.60;99.90;;;;;;5065861;28;20024;-72
2023/01/19 11:27:19;;;;;;;22.83;13.65;;;0.60;99.90;;;;;;5066635;28;20044;-72
2023/01/19 11:30:00;;;;;;;20.98;13.60;;;0.70;99.90;;;;;;5065571;28;20052;-72
2023/01/19 11:32:26;;;;;;;20.20;13.27;;;0.70;99.90;;;;;;5060463;28;20046;-72
2023/01/19 11:34:52;;;;;;;22.45;13.10;;;0.80;99.90;;;;;;5055376;28;20035;-72
2023/01/19 11:37:18;;;;;;;20.70;13.02;;;0.80;99.90;;;;;;5061833;28;20024;-72
2023/01/19 11:39:56;;;;;;;19.88;12.77;;;0.80;99.90;;;;;;5065669;28;20357;-73
2023/01/19 11:42:22;;;;;;;20.42;12.98;;;;;;;;;;5051178;28;20032;-73
2023/01/19 11:44:51;;;;;;;21.58;13.48;;;;;;;;;;5054918;28;20036;-73
2023/01/19 11:47:23;;;;;;;20.77;13.77;;;;;;;;;;5060890;28;20122;-73
2023/01/19 11:50:10;;;;;;;16.27;10.43;;;0.90;99.90;;;;;;5056491;28;20056;-73
2023/01/19 11:52:44;;;;;;;21.25;13.10;;;0.90;99.90;;;;;;5059078;28;20096;-73
2023/01/19 11:55:18;;;;;;;20.13;12.75;;;1.00;99.90;;;;;;5060737;28;20511;-72
2023/01/19 11:57:47;;;;;;;21.50;13.57;;;0.90;99.90;;;;;;5065003;28;20048;-72
2023/01/19 12:00:22;;;;;;;22.48;13.50;;;1.00;99.90;;;;;;5065827;28;20094;-73
2023/01/19 12:02:52;;;;;;;23.65;15.05;;;1.00;99.90;;;;;;5063222;28;20037;-72
2023/01/19 12:05:20;;;;;;;22.67;15.15;;;1.00;99.90;;;;;;5068868;28;20391;-72
2023/01/19 12:07:48;;;;;;;26.25;16.45;;;1.00;99.90;;;;;;5050801;28;20113;-72
2023/01/19 12:10:27;;;;;;;25.38;15.88;;;1.00;99.90;;;;;;5059967;28;20037;-72
2023/01/19 12:12:55;;;;;;;25.30;17.58;;;0.90;99.90;;;;;;5067167;28;20033;-72
2023/01/19 12:15:43;;;;;;;26.23;17.73;;;0.90;99.90;;;;;;5060182;28;20363;-73
2023/01/19 12:18:18;;;;;;;24.98;16.20;;;0.90;99.90;;;;;;5059850;28;20048;-72
2023/01/19 12:20:47;;;;;;;27.80;16.55;;;0.90;99.90;;;;;;5055412;28;20434;-72
2023/01/19 12:23:36;;;;;;;24.23;15.75;;;0.90;99.90;;;;;;5070028;28;20365;-72
2023/01/19 12:26:25;;;;;;;24.33;14.80;;;0.90;99.90;;;;;;4708376;28;9999824;-75
2023/01/19 12:28:53;;;;;;;23.83;15.13;;;0.90;99.90;;;;;;5059284;28;20031;-74
2023/01/19 12:31:21;;;;;;;23.70;14.80;;;0.90;99.90;;;;;;5058667;28;20131;-74
2023/01/19 12:33:47;;;;;;;23.92;15.07;;;0.90;99.90;;;;;;5050752;28;20064;-73
2023/01/19 12:36:15;;;;;;;20.23;13.70;;;1.00;99.90;;;;;;5057067;28;20021;-74
2023/01/19 12:38:53;;;;;;;24.90;15.30;;;1.00;99.90;;;;;;5051149;28;20036;-73
2023/01/19 12:41:26;;;;;;;22.13;14.68;;;1.00;99.90;;;;;;5048055;28;20280;-75
2023/01/19 12:44:10;;;;;;;23.30;14.68;;;1.00;99.90;;;;;;5062155;28;20033;-74
2023/01/19 12:46:53;;;;;;;22.30;13.50;;;1.00;99.90;;;;;;5075472;28;20029;-75
2023/01/19 12:49:32;;;;;;;18.42;12.52;;;1.00;99.90;;;;;;5075619;28;20051;-74